El Carril, Argentina
Current Conditions -  °F | °C
As of 11:00 AM on Monday 22 Dec 2014 (Local Time) from SASA Reporting Station
Overcast Overcast  
Wind Chill: 54°   Ceiling: 1500
Heat Index: 54°   Visibility: 5mi
Dew Point: 48°   Wind: 10mph
Humidity: 82%   Direction: 90°E
Pressure: 30.24"   Gusts: NA
Location:  25.03°S, 65.47°W
Report Text: SASA 221400Z 09009KT 8000 FEW007 OVC015 12/09 Q1024
Loading
Personal Weather Stations






























Interactive Weather Map New forecast layout! Learn more

10-Day Weather Forecast

Advertisements
Track Severe Weather on mobile